Du har inga inställningar för hoppväder.nu

Hoppväder.nu

Senast uppdaterat 18:53

UTC-tid

2024-05-30 kl. 16:53


Sol och måne

Solen går upp 3:36 och går ner 23:00 (beräknade cirkatider)
Nästa fullmåne blir om 23 dagar (2024-06-22)

METAR

ESSA (Arlanda, Stockholm)
(33 minuter sedan)
ESSA 301620Z 10006KT 070V140 CAVOK 22/08 Q1010 NOSIG=



ESSD (Borlänge)
(33 minuter sedan)
ESSD 301620Z AUTO 09006KT 9999 NCD 22/07 Q1010=



EFMA (Mariehamn)
(33 minuter sedan)
EFMA 301620Z AUTO VRB02KT CAVOK 22/11 Q1011=



ESOW (Västerås)
(33 minuter sedan)
ESOW 301620Z AUTO 10007KT 060V120 9999 NCD 23/08 Q1010=






TAF

ESSA (Arlanda, Stockholm)
(143 minuter sedan)
ESSA 301430Z 3015/3115 12007KT CAVOK=



ESSD (Borlänge)
(323 minuter sedan)
ESSD 301130Z 3012/3015 12006KT CAVOK=



EFMA (Mariehamn)
(141 minuter sedan)
EFMA 301432Z 3015/3024 18006KT CAVOK BECMG 3022/3024 6000=



ESOW (Västerås)
(323 minuter sedan)
ESOW 301130Z 3012/3015 18004KT CAVOK=





Kodnycklar till TAF och METAR






LHP

(Gryttjom är område se34e i Delområde 4)

Översikt

ÖVERSIKT FÖR OMRÅDE se3 UTFÄRDAD 301148

GÄLLANDE DEN 30 MAJ 2024 MELLAN 12 OCH 20 UTC


Väderöversikt
En ocklusionsfront berör sydvästra Sverige och rör sig långsamt norrut.

Sikt under 5 kilometer eller molnbas under 1000 fot
12-14UTC: Område se32 och se31
14-16UTC: Område se31

Måttlig eller svår isbildning
Väntas inte förekomma under perioden
Måttlig eller svår turbulens
Väntas inte förekomma under perioden


Delområde 4

PROGNOS FÖR OMRÅDE se34 UTFÄRDAD 301148
GÄLLANDE DEN 30 MAJ 2024 MELLAN 12 OCH 20 UTC


Måttlig eller svår turbulens
12-20UTC: I hela området: Väntas inte förekomma under perioden

Måttlig eller svår isbildning
12-20UTC: I hela området: Väntas inte förekomma under perioden

Sikt/Väder/Moln
12-14UTC: Område se34c: Sikt >8km i regnskurar, åska. Molnbas >2000ft.

12-20UTC: Område se34a, se34b, se34d, se34e, se34f: Sikt >8km. Molnbas >2000ft.

14-20UTC: Område se34c: Sikt >8km. Molnbas >2000ft.


Molnöversida
12-14UTC: Område se34c: Molnöversida > FL125.

12-20UTC: Område se34a, se34b, se34d, se34e, se34f: Ingen prognos

14-20UTC: Område se34c: Ingen prognos


CB/TCU Moln
12-14UTC: Område se34c: isol cb

12-20UTC: Område se34a, se34b, se34d, se34e, se34f: Väntas inte förekomma under perioden

14-20UTC: Område se34c: Väntas inte förekomma under perioden


Nollgradersisoterm
12-16UTC: I hela området: Noll grader FL080 - FL095.
16-20UTC: I hela området: Noll grader FL080 - FL100.

Vind vid marken
12-14UTC: Område se34a: O/2-15 knop, byar upp till 21 knop.
Område se34b: O-SO/2-12 knop, byar upp till 22 knop.
Område se34c: SO/2-10 knop, byar upp till 21 knop.
Område se34d: SO/3-6 knop, byar upp till 17 knop.
Område se34e: SO-S/3-7 knop, byar upp till 17 knop.
Område se34f: SO-S/3-7 knop, byar upp till 19 knop.

14-16UTC: Område se34a: O/2-13 knop, byar upp till 20 knop.
Område se34b: O-SO/2-14 knop, byar upp till 21 knop.
Område se34c: SO-S/1-8 knop, byar upp till 20 knop.
Område se34d: SO-S/2-4 knop, byar upp till 16 knop.
Område se34e: SO-S/3-6 knop, byar upp till 16 knop.
Område se34f: SO-S/3-7 knop, byar upp till 18 knop.

16-18UTC: Område se34a: O/3-15 knop, byar upp till 19 knop.
Område se34b: O-SO/0-13 knop, byar upp till 20 knop.
Område se34c: SO/0-6 knop, byar upp till 16 knop.
Område se34d: SO/1-5 knop, byar upp till 12 knop.
Område se34e: SO-S/1-6 knop, byar upp till 15 knop.
Område se34f: SO/3-7 knop, byar upp till 18 knop.

18-20UTC: Område se34a: O-SO/1-14 knop, byar upp till 17 knop.
Område se34b: O/0-11 knop, byar upp till 15 knop.
Område se34c: Vrb/0-7 knop, byar upp till 12 knop.
Område se34d: O/0-4 knop, byar upp till 12 knop.
Område se34e: SO/0-5 knop, byar upp till 14 knop.
Område se34f: O-SO/0-5 knop, byar upp till 14 knop.


Genomsnittlig vind och temperatur för området

2000ft:
12-14UTC: 150/9kt +15.
14-16UTC: 160/8kt +15.
16-20UTC: 150/7kt +15.

FL050:
12-14UTC: 160/12kt +7.
14-16UTC: 170/10kt +7.
16-18UTC: 170/7kt +8.
18-20UTC: 160/5kt +8.

FL100:
12-14UTC: 170/18kt -2.
14-16UTC: 170/17kt -1.
16-18UTC: 180/16kt -1.
18-20UTC: 170/15kt -2.

Lägsta QNH
12-14UTC: I hela området: 1011 hPa
14-20UTC: I hela området: 1010 hPa

OBS! endast utbredd måttlig eller svår isbildning och turbulens prognostiseras i LLF.
Avsaknad av isbildning och turbulens i prognosen utesluter inte förekomst av lätt isbildning och turbulens.
För indikation på lätt isbildning, var vänlig kontrollera om prognosen för molntopp ligger högre än nollgradersisotermen.
Förekomst av TCU eller CB medför alltid en risk för måttlig eller svår isbildning och turbulens även om det inte framgår explicit av prognosen.






Spotting

Hur fungerar spotthjälpen och Vindkartan?

Markvind är ca 1-3 m/s med byar på 8 m/s.
Vind på 600 m ca 4 m/s.
Vind på 1500 m ca 4 m/s.
Vind på 3000 m ca 8 m/s.
SE-GEE flyger ca 37 m/s över marken på finalen.
Du driver ca 370 m bakåt i frifall. (494 m)
Lämplig spot är 2 sekunder eller 74 m efter gropen.
(6 s eller 222 m)
För små grupper eller ensamhoppare bör man vänta 4-6 sekunder mellan grupperna.
För större grupper bör man vänta 8-10 sekunder mellan grupperna.


Vindkartan

Senast uppdaterad 18:53




All data kommer från LFV.se